createdAt,value
2019-03-02T00:00:18.617Z,2.8
2019-03-02T00:02:20.499Z,1.7
2019-03-02T00:04:18.792Z,2.1
2019-03-02T00:06:18.859Z,1.9
2019-03-02T00:08:18.430Z,2.3
2019-03-02T00:10:18.800Z,1.9
2019-03-02T00:12:19.350Z,2.5
2019-03-02T00:14:19.299Z,2.4
2019-03-02T00:16:18.977Z,1.8
2019-03-02T00:18:18.590Z,2.1
2019-03-02T00:20:19.375Z,2
2019-03-02T00:22:18.969Z,1.6
2019-03-02T00:24:18.521Z,2.1
2019-03-02T00:26:19.148Z,1.9
2019-03-02T00:28:18.709Z,2.1
2019-03-02T00:30:21.065Z,3
2019-03-02T00:32:18.666Z,3.5
2019-03-02T00:34:19.215Z,2.2
2019-03-02T00:36:19.575Z,2.5
2019-03-02T00:38:18.767Z,2.1
2019-03-02T00:40:18.732Z,2.5
2019-03-02T00:42:19.281Z,2.5
2019-03-02T00:44:18.821Z,2.2
2019-03-02T00:46:20.595Z,2.2
2019-03-02T00:48:18.472Z,2.7
2019-03-02T00:50:19.049Z,2.2
2019-03-02T00:52:20.403Z,2.7
2019-03-02T00:54:18.733Z,2.3
2019-03-02T00:56:19.111Z,1.9
2019-03-02T00:58:18.667Z,2.1
2019-03-02T01:00:19.248Z,3.1
2019-03-02T01:02:18.802Z,2
2019-03-02T01:04:19.372Z,2
2019-03-02T01:06:18.789Z,2.6
2019-03-02T01:08:19.332Z,1.7
2019-03-02T01:10:22.587Z,2.1
2019-03-02T01:12:19.144Z,2.2
2019-03-02T01:14:18.695Z,1.6
2019-03-02T01:16:19.918Z,2.5
2019-03-02T01:18:18.575Z,2.2
2019-03-02T01:20:19.154Z,2.2
2019-03-02T01:22:18.718Z,2.8
2019-03-02T01:24:19.269Z,3
2019-03-02T01:26:20.528Z,2.9
2019-03-02T01:28:18.394Z,2.4
2019-03-02T01:30:18.982Z,2.6
2019-03-02T01:32:18.541Z,2.5
2019-03-02T01:34:19.151Z,2.7
2019-03-02T01:36:19.288Z,2.4
2019-03-02T01:38:19.533Z,2.4
2019-03-02T01:40:18.574Z,2.9
2019-03-02T01:42:19.130Z,2.1
2019-03-02T01:44:18.700Z,1.9
2019-03-02T01:46:18.383Z,2.6
2019-03-02T01:48:18.933Z,2.7
2019-03-02T01:50:18.509Z,1.9
2019-03-02T01:52:19.085Z,3.6
2019-03-02T01:54:21.210Z,1.8
2019-03-02T01:56:19.035Z,2.8
2019-03-02T01:58:18.588Z,2.3
2019-03-02T02:00:19.164Z,2.5
2019-03-02T02:02:18.719Z,3
2019-03-02T02:04:22.645Z,2.5
2019-03-02T02:06:18.803Z,3
2019-03-02T02:08:19.380Z,2.3
2019-03-02T02:10:19.342Z,2.3
2019-03-02T02:12:18.901Z,2.9
2019-03-02T02:14:19.749Z,2.4
2019-03-02T02:16:18.426Z,2.9
2019-03-02T02:18:19.053Z,2.1
2019-03-02T02:20:18.647Z,3.4
2019-03-02T02:22:19.213Z,3
2019-03-02T02:24:21.704Z,2.7
2019-03-02T02:26:18.924Z,2.7
2019-03-02T02:28:18.486Z,3.7
2019-03-02T02:30:24.264Z,3.3
2019-03-02T02:32:19.051Z,3
2019-03-02T02:34:22.124Z,2.4
2019-03-02T02:36:19.070Z,3.3
2019-03-02T02:38:18.993Z,2.6
2019-03-02T02:40:18.960Z,3
2019-03-02T02:42:18.523Z,2.9
2019-03-02T02:44:19.090Z,3.1
2019-03-02T02:46:18.665Z,2.6
2019-03-02T02:48:19.222Z,3
2019-03-02T02:50:27.837Z,2.8
2019-03-02T02:52:27.449Z,4
2019-03-02T02:54:23.169Z,3.1
2019-03-02T02:56:21.031Z,3.1
2019-03-02T02:58:19.334Z,2.7
2019-03-02T03:00:19.103Z,2.2
2019-03-02T03:02:18.666Z,2.5
2019-03-02T03:04:19.219Z,2.8
2019-03-02T03:06:18.914Z,3.3
2019-03-02T03:08:18.475Z,3.2
2019-03-02T03:10:23.245Z,2.5
2019-03-02T03:12:22.642Z,3.3
2019-03-02T03:14:19.775Z,2.8
2019-03-02T03:16:18.624Z,3.7
2019-03-02T03:18:19.239Z,3.9
2019-03-02T03:20:18.822Z,3.8
2019-03-02T03:22:18.389Z,3.5
2019-03-02T03:24:18.951Z,3.8
2019-03-02T03:26:18.963Z,2.6
2019-03-02T03:28:18.541Z,2.9
2019-03-02T03:30:32.811Z,4.1
2019-03-02T03:32:18.806Z,3.6
2019-03-02T03:34:28.283Z,3.2
2019-03-02T03:36:18.975Z,3.8
2019-03-02T03:38:18.527Z,2.6
2019-03-02T03:40:19.960Z,3.8
2019-03-02T03:42:22.977Z,3.7
2019-03-02T03:44:25.590Z,3.4
2019-03-02T03:46:22.253Z,3.5
2019-03-02T03:48:19.446Z,2.7
2019-03-02T03:50:19.079Z,2.7
2019-03-02T03:52:18.650Z,3.8
2019-03-02T03:54:19.215Z,3.3
2019-03-02T03:56:18.802Z,3.6
2019-03-02T03:58:19.347Z,3.4
2019-03-02T04:00:18.933Z,4.4
2019-03-02T04:02:18.496Z,4.1
2019-03-02T04:04:19.046Z,4.6
2019-03-02T04:06:23.054Z,3.7
2019-03-02T04:08:18.580Z,3.9
2019-03-02T04:10:24.421Z,4.4
2019-03-02T04:12:19.724Z,3.6
2019-03-02T04:14:23.255Z,3.6
2019-03-02T04:16:20.527Z,3.8
2019-03-02T04:18:18.537Z,3.4
2019-03-02T04:20:19.119Z,3.3
2019-03-02T04:22:18.683Z,4.3
2019-03-02T04:24:19.250Z,3.9
2019-03-02T04:26:19.060Z,4.1
2019-03-02T04:28:18.614Z,4
2019-03-02T04:30:19.188Z,4
2019-03-02T04:32:18.740Z,3.9
2019-03-02T04:34:21.113Z,4.5
2019-03-02T04:36:18.928Z,4.2
2019-03-02T04:38:18.473Z,4.7
2019-03-02T04:40:23.245Z,3.2
2019-03-02T04:42:19.210Z,3.9
2019-03-02T04:44:18.761Z,4
2019-03-02T04:46:18.644Z,5.1
2019-03-02T04:48:19.191Z,3.8
2019-03-02T04:50:18.792Z,4.5
2019-03-02T04:52:19.336Z,4.3
2019-03-02T04:54:18.904Z,4.5
2019-03-02T04:56:20.553Z,4.2
2019-03-02T04:58:18.851Z,3.9
2019-03-02T05:00:18.434Z,4.4
2019-03-02T05:02:19.606Z,4.9
2019-03-02T05:04:18.960Z,4.7
2019-03-02T05:06:19.807Z,4.2
2019-03-02T05:08:18.420Z,4.7
2019-03-02T05:10:18.399Z,5.2
2019-03-02T05:12:18.963Z,4.9
2019-03-02T05:14:18.514Z,3.7
2019-03-02T05:16:18.576Z,4.6
2019-03-02T05:18:19.203Z,4.1
2019-03-02T05:20:18.762Z,5.2
2019-03-02T05:22:19.693Z,4.4
2019-03-02T05:24:19.334Z,4.4
2019-03-02T05:26:18.384Z,5.4
2019-03-02T05:28:18.953Z,4.7
2019-03-02T05:30:18.524Z,4.6
2019-03-02T05:32:19.693Z,5.1
2019-03-02T05:34:19.322Z,7.6
2019-03-02T05:36:18.882Z,5.3
2019-03-02T05:38:18.437Z,5.4
2019-03-02T05:40:18.424Z,5.9
2019-03-02T05:42:18.973Z,6.6
2019-03-02T05:44:18.654Z,6.2
2019-03-02T05:46:21.862Z,6
2019-03-02T05:48:19.399Z,5.9
2019-03-02T05:50:19.069Z,6.9
2019-03-02T05:52:18.860Z,6.9
2019-03-02T05:54:18.573Z,7.2
2019-03-02T05:56:18.881Z,7
2019-03-02T05:58:18.557Z,5.8
2019-03-02T06:00:19.230Z,6.8
2019-03-02T06:02:18.909Z,8.3
2019-03-02T06:04:18.737Z,6.2
2019-03-02T06:06:19.342Z,6.5
2019-03-02T06:08:19.019Z,7.2
2019-03-02T06:10:21.633Z,8.6
2019-03-02T06:12:18.993Z,6.5
2019-03-02T06:14:18.657Z,7.4
2019-03-02T06:16:18.646Z,8.1
2019-03-02T06:18:18.608Z,6.6
2019-03-02T06:20:19.306Z,7
2019-03-02T06:22:21.054Z,6.8
2019-03-02T06:24:18.454Z,6.3
2019-03-02T06:26:19.003Z,6.2
2019-03-02T06:28:19.555Z,7.1
2019-03-02T06:30:19.262Z,7.6
2019-03-02T06:32:18.952Z,6.8
2019-03-02T06:34:19.691Z,7.2
2019-03-02T06:36:18.952Z,7.6
2019-03-02T06:38:18.657Z,6.8
2019-03-02T06:40:19.698Z,7.3
2019-03-02T06:42:19.282Z,7
2019-03-02T06:44:18.959Z,8.8
2019-03-02T06:46:19.804Z,7.7
2019-03-02T06:48:18.938Z,8
2019-03-02T06:50:18.640Z,6.3
2019-03-02T06:52:24.995Z,7.1
2019-03-02T06:54:18.790Z,8.1
2019-03-02T06:56:19.066Z,6.3
2019-03-02T06:58:18.746Z,6.2
2019-03-02T07:00:19.450Z,6.1
2019-03-02T07:02:19.115Z,6.2
2019-03-02T07:04:21.839Z,7
2019-03-02T07:06:19.318Z,6.3
2019-03-02T07:08:19.000Z,6.9
2019-03-02T07:10:21.540Z,6.2
2019-03-02T07:12:19.152Z,7.1
2019-03-02T07:14:18.780Z,6.4
2019-03-02T07:16:20.029Z,7
2019-03-02T07:18:19.474Z,6.5
2019-03-02T07:20:19.119Z,6.3
2019-03-02T07:22:18.808Z,5.3
2019-03-02T07:24:18.484Z,6.1
2019-03-02T07:26:19.660Z,6.3
2019-03-02T07:28:18.529Z,6.7
2019-03-02T07:30:19.191Z,6.2
2019-03-02T07:32:18.861Z,6.4
2019-03-02T07:34:18.558Z,6.4
2019-03-02T07:36:18.920Z,6.3
2019-03-02T07:38:20.247Z,7.3
2019-03-02T07:40:18.632Z,5.5
2019-03-02T07:42:19.254Z,5.4
2019-03-02T07:44:22.178Z,6.4
2019-03-02T07:46:18.685Z,5.1
2019-03-02T07:48:19.378Z,7.3
2019-03-02T07:50:21.812Z,5.9
2019-03-02T07:52:19.095Z,5.9
2019-03-02T07:54:18.774Z,5.1
2019-03-02T07:56:19.130Z,5
2019-03-02T07:58:19.642Z,5.3
2019-03-02T08:00:18.463Z,5
2019-03-02T08:02:19.093Z,5.6
2019-03-02T08:04:18.767Z,5.3
2019-03-02T08:06:21.838Z,5.3
2019-03-02T08:08:19.314Z,7.5
2019-03-02T08:10:18.533Z,5.8
2019-03-02T08:12:20.771Z,5.7
2019-03-02T08:14:18.628Z,5.3
2019-03-02T08:16:18.970Z,6.5
2019-03-02T08:18:21.598Z,6
2019-03-02T08:20:20.633Z,4.6
2019-03-02T08:22:19.420Z,5.5
2019-03-02T08:24:19.102Z,5
2019-03-02T08:26:19.412Z,4.5
2019-03-02T08:28:19.114Z,5.5
2019-03-02T08:30:18.831Z,5.2
2019-03-02T08:32:21.106Z,5.1
2019-03-02T08:34:18.600Z,4.4
2019-03-02T08:36:18.926Z,4.5
2019-03-02T08:38:18.610Z,5.1
2019-03-02T08:40:19.171Z,5.2
2019-03-02T08:42:19.162Z,7.1
2019-03-02T08:44:19.070Z,5.6
2019-03-02T08:46:19.136Z,5.3
2019-03-02T08:48:18.800Z,5.3
2019-03-02T08:50:18.782Z,4.7
2019-03-02T08:52:18.622Z,4.3
2019-03-02T08:54:21.464Z,4.7
2019-03-02T08:56:18.591Z,4.7
2019-03-02T08:58:19.259Z,5.3
2019-03-02T09:00:18.921Z,4.7
2019-03-02T09:02:18.598Z,5.3
2019-03-02T09:04:19.268Z,5.1
2019-03-02T09:06:18.591Z,5
2019-03-02T09:08:19.276Z,4.6
2019-03-02T09:10:18.523Z,5.2
2019-03-02T09:12:21.761Z,5.3
2019-03-02T09:14:18.670Z,5.8
2019-03-02T09:16:18.980Z,5.1
2019-03-02T09:18:18.738Z,5.1
2019-03-02T09:20:19.422Z,4.7
2019-03-02T09:22:20.765Z,4.8
2019-03-02T09:24:19.612Z,5
2019-03-02T09:26:19.076Z,5.6
2019-03-02T09:28:18.776Z,5.8
2019-03-02T09:30:18.481Z,5
2019-03-02T09:32:19.162Z,6.5
2019-03-02T09:34:18.837Z,5.1
2019-03-02T09:36:19.164Z,4.8
2019-03-02T09:38:20.792Z,4.6
2019-03-02T09:40:18.526Z,5.7
2019-03-02T09:42:19.179Z,4.8
2019-03-02T09:44:18.787Z,5.7
2019-03-02T09:46:21.152Z,3.8
2019-03-02T09:48:20.851Z,4.4
2019-03-02T09:50:21.493Z,4.1
2019-03-02T09:52:18.638Z,4
2019-03-02T09:54:19.377Z,4.2
2019-03-02T09:56:18.620Z,4.7
2019-03-02T09:58:20.157Z,4.1
2019-03-02T10:00:22.912Z,3.6
2019-03-02T10:02:19.312Z,3.8
2019-03-02T10:04:18.959Z,3.6
2019-03-02T10:06:21.744Z,4
2019-03-02T10:08:18.576Z,3.8
2019-03-02T10:10:18.829Z,3.7
2019-03-02T10:12:18.497Z,4.9
2019-03-02T10:14:20.618Z,3.6
2019-03-02T10:16:19.413Z,3.4
2019-03-02T10:18:19.175Z,3.2
2019-03-02T10:20:18.824Z,3.6
2019-03-02T10:22:19.687Z,2.8
2019-03-02T10:24:19.010Z,2.9
2019-03-02T10:26:19.350Z,3.2
2019-03-02T10:28:18.982Z,2.9
2019-03-02T10:30:21.926Z,3.1
2019-03-02T10:32:19.592Z,2.3
2019-03-02T10:34:19.329Z,3.1
2019-03-02T10:36:18.641Z,3.5
2019-03-02T10:38:20.065Z,2.9
2019-03-02T10:40:19.293Z,3.4
2019-03-02T10:42:18.993Z,3
2019-03-02T10:44:21.235Z,2.2
2019-03-02T10:46:18.574Z,2.2
2019-03-02T10:48:19.219Z,2.8
2019-03-02T10:50:19.505Z,3.1
2019-03-02T10:52:19.226Z,2.2
2019-03-02T10:54:18.870Z,2.6
2019-03-02T10:56:20.803Z,2.7
2019-03-02T10:58:19.327Z,2.3
2019-03-02T11:00:19.030Z,2.2
2019-03-02T11:02:20.027Z,2.2
2019-03-02T11:04:18.597Z,2.9
2019-03-02T11:06:18.983Z,3
2019-03-02T11:08:21.689Z,2.8
2019-03-02T11:10:18.637Z,2.9
2019-03-02T11:12:19.261Z,2.1
2019-03-02T11:14:18.933Z,2.5
2019-03-02T11:16:18.482Z,3.2
2019-03-02T11:18:19.202Z,3.2
2019-03-02T11:20:20.718Z,2.6
2019-03-02T11:22:19.830Z,2.7
2019-03-02T11:24:18.624Z,3.2
2019-03-02T11:26:18.940Z,2.7
2019-03-02T11:28:18.598Z,3.7
2019-03-02T11:30:19.262Z,3
2019-03-02T11:32:20.288Z,3.6
2019-03-02T11:34:18.999Z,3.1
2019-03-02T11:36:19.260Z,3.2
2019-03-02T11:38:18.966Z,2.3
2019-03-02T11:40:19.198Z,3.1
2019-03-02T11:42:18.855Z,4
2019-03-02T11:44:18.560Z,4.4
2019-03-02T11:46:18.871Z,2.7
2019-03-02T11:48:18.503Z,2.7
2019-03-02T11:50:19.209Z,3.2
2019-03-02T11:52:18.900Z,3.1
2019-03-02T11:54:18.531Z,3
2019-03-02T11:56:25.029Z,2.8
2019-03-02T11:58:18.936Z,3.2
2019-03-02T12:00:21.380Z,3
2019-03-02T12:02:19.888Z,3.1
2019-03-02T12:04:18.493Z,2.3
2019-03-02T12:06:18.837Z,3
2019-03-02T12:08:21.905Z,1.9
2019-03-02T12:10:18.603Z,2.9
2019-03-02T12:12:19.284Z,2.6
2019-03-02T12:14:18.985Z,3.6
2019-03-02T12:16:21.989Z,2.6
2019-03-02T12:18:19.624Z,2.7
2019-03-02T12:20:19.409Z,2.8
2019-03-02T12:22:19.114Z,2.3
2019-03-02T12:24:19.084Z,2.7
2019-03-02T12:26:19.409Z,2.4
2019-03-02T12:28:19.105Z,3.4
2019-03-02T12:30:22.199Z,2.7
2019-03-02T12:32:18.875Z,3.2
2019-03-02T12:34:18.548Z,3.4
2019-03-02T12:36:18.859Z,2.7
2019-03-02T12:38:18.554Z,2.8
2019-03-02T12:40:18.652Z,3
2019-03-02T12:42:19.284Z,3.4
2019-03-02T12:44:21.230Z,3.4
2019-03-02T12:46:18.716Z,2.2
2019-03-02T12:48:19.411Z,2.9
2019-03-02T12:50:23.049Z,3.8
2019-03-02T12:52:18.901Z,3.6
2019-03-02T12:54:18.581Z,2.6
2019-03-02T12:56:18.900Z,2.7
2019-03-02T12:58:20.001Z,2.6
2019-03-02T13:00:18.681Z,2.3
2019-03-02T13:02:19.369Z,3.9
2019-03-02T13:04:19.046Z,3.8
2019-03-02T13:06:19.273Z,3
2019-03-02T13:08:18.969Z,2.5
2019-03-02T13:10:19.179Z,3.2
2019-03-02T13:12:18.835Z,3.1
2019-03-02T13:14:18.537Z,2.5
2019-03-02T13:16:19.813Z,2.4
2019-03-02T13:18:18.667Z,2.8
2019-03-02T13:20:19.395Z,3.2
2019-03-02T13:22:19.104Z,2.4
2019-03-02T13:24:22.434Z,2.7
2019-03-02T13:26:18.990Z,3.2
2019-03-02T13:28:18.636Z,2.9
2019-03-02T13:30:19.321Z,2.9
2019-03-02T13:32:19.792Z,2.8
2019-03-02T13:34:20.086Z,2.9
2019-03-02T13:36:19.118Z,2.9
2019-03-02T13:38:18.810Z,3.3
2019-03-02T13:40:18.959Z,3.2
2019-03-02T13:42:18.646Z,2.8
2019-03-02T13:44:19.323Z,2.4
2019-03-02T13:46:18.609Z,3.2
2019-03-02T13:48:22.152Z,2
2019-03-02T13:50:20.274Z,2.8
2019-03-02T13:52:19.098Z,2.5
2019-03-02T13:54:18.783Z,3
2019-03-02T13:56:22.120Z,3.6
2019-03-02T13:58:19.310Z,2.6
2019-03-02T14:00:19.099Z,2.8
2019-03-02T14:02:18.738Z,2.9
2019-03-02T14:04:19.409Z,3
2019-03-02T14:06:19.694Z,2.6
2019-03-02T14:08:18.481Z,2.6
2019-03-02T14:10:20.439Z,2.2
2019-03-02T14:12:19.789Z,2.7
2019-03-02T14:14:18.561Z,2.6
2019-03-02T14:16:18.874Z,3
2019-03-02T14:18:18.657Z,2.6
2019-03-02T14:20:20.556Z,3.2
2019-03-02T14:22:18.609Z,3.3
2019-03-02T14:24:19.237Z,2
2019-03-02T14:26:18.560Z,2.3
2019-03-02T14:28:19.266Z,2.7
2019-03-02T14:30:21.230Z,2.9
2019-03-02T14:32:18.550Z,2.4
2019-03-02T14:34:19.240Z,2
2019-03-02T14:36:18.531Z,2.2
2019-03-02T14:38:20.117Z,2.5
2019-03-02T14:40:19.236Z,3
2019-03-02T14:42:18.878Z,3.6
2019-03-02T14:44:18.592Z,2.9
2019-03-02T14:46:23.235Z,2.2
2019-03-02T14:48:19.196Z,2.3
2019-03-02T14:50:19.460Z,3
2019-03-02T14:52:19.228Z,2.2
2019-03-02T14:54:20.686Z,2.4
2019-03-02T14:56:19.202Z,3.6
2019-03-02T14:58:18.882Z,1.8
2019-03-02T15:00:18.568Z,1.9
2019-03-02T15:02:19.263Z,2.2
2019-03-02T15:04:18.921Z,2.5
2019-03-02T15:06:19.249Z,2.2
2019-03-02T15:08:18.938Z,2.6
2019-03-02T15:10:22.801Z,1.4
2019-03-02T15:12:18.692Z,2.2
2019-03-02T15:14:19.371Z,2.2
2019-03-02T15:16:18.737Z,2.5
2019-03-02T15:18:18.497Z,2.4
2019-03-02T15:20:18.662Z,2.4
2019-03-02T15:22:20.333Z,2.1
2019-03-02T15:24:20.388Z,2.1
2019-03-02T15:26:18.911Z,1.6
2019-03-02T15:28:28.677Z,2
2019-03-02T15:30:19.193Z,2.5
2019-03-02T15:32:20.175Z,1.6
2019-03-02T15:34:19.359Z,2
2019-03-02T15:36:18.655Z,2
2019-03-02T15:38:19.343Z,2.6
2019-03-02T15:40:18.560Z,2.8
2019-03-02T15:42:21.203Z,2.6
2019-03-02T15:44:18.732Z,2.8
2019-03-02T15:46:19.107Z,2
2019-03-02T15:48:18.783Z,2.8
2019-03-02T15:50:19.490Z,2.6
2019-03-02T15:52:19.194Z,2.8
2019-03-02T15:54:18.843Z,3.6
2019-03-02T15:56:19.947Z,2.5
2019-03-02T15:58:19.713Z,2.5
2019-03-02T16:00:18.983Z,2.9
2019-03-02T16:02:18.690Z,3.5
2019-03-02T16:04:19.334Z,2.8
2019-03-02T16:06:19.534Z,3
2019-03-02T16:08:18.889Z,2.4
2019-03-02T16:10:18.979Z,2.5
2019-03-02T16:12:18.688Z,3.2
2019-03-02T16:14:19.365Z,2.8
2019-03-02T16:16:20.903Z,2.1
2019-03-02T16:18:19.205Z,2.9
2019-03-02T16:20:20.668Z,2.9
2019-03-02T16:22:19.090Z,2.1
2019-03-02T16:24:19.858Z,2.3
2019-03-02T16:26:18.887Z,2.6
2019-03-02T16:28:18.566Z,2.5
2019-03-02T16:30:19.239Z,2.9
2019-03-02T16:32:20.176Z,3.3
2019-03-02T16:34:18.755Z,2.9
2019-03-02T16:36:19.159Z,2.6
2019-03-02T16:38:18.794Z,2.4
2019-03-02T16:40:22.121Z,3.5
2019-03-02T16:42:18.748Z,2.6
2019-03-02T16:44:19.425Z,2.5
2019-03-02T16:46:18.757Z,2.5
2019-03-02T16:48:19.441Z,2.7
2019-03-02T16:50:19.114Z,2.9
2019-03-02T16:52:18.809Z,2.8
2019-03-02T16:54:18.456Z,30.5
2019-03-02T16:56:21.131Z,5.5
2019-03-02T16:58:19.311Z,3.1
2019-03-02T17:00:19.031Z,10.3
2019-03-02T17:02:18.695Z,2.9
2019-03-02T17:04:19.825Z,4.8
2019-03-02T17:06:18.775Z,3.6
2019-03-02T17:08:19.434Z,4.2
2019-03-02T17:10:19.958Z,3.9
2019-03-02T17:12:19.212Z,3.4
2019-03-02T17:14:18.906Z,3.7
2019-03-02T17:16:19.266Z,4.2
2019-03-02T17:18:21.706Z,3.9
2019-03-02T17:20:19.129Z,4.1
2019-03-02T17:22:18.816Z,3.6
2019-03-02T17:24:19.847Z,4.7
2019-03-02T17:26:19.110Z,4.9
2019-03-02T17:28:18.823Z,4.3
2019-03-02T17:30:21.295Z,3.8
2019-03-02T17:32:18.774Z,5.2
2019-03-02T17:34:19.457Z,4.4
2019-03-02T17:36:20.278Z,3.2
2019-03-02T17:38:19.072Z,3.3
2019-03-02T17:40:19.254Z,4.3
2019-03-02T17:42:18.877Z,3.6
2019-03-02T17:44:21.864Z,3.9
2019-03-02T17:46:18.784Z,3.6
2019-03-02T17:48:19.469Z,3.8
2019-03-02T17:50:19.648Z,3.5
2019-03-02T17:52:19.467Z,3.5
2019-03-02T17:54:19.163Z,3.5
2019-03-02T17:56:18.541Z,3.3
2019-03-02T17:58:19.229Z,4.3
2019-03-02T18:00:19.668Z,3.9
2019-03-02T18:02:18.967Z,5.5
2019-03-02T18:04:20.333Z,5.4
2019-03-02T18:06:20.394Z,5.9
2019-03-02T18:08:19.446Z,6
2019-03-02T18:10:18.598Z,5.1
2019-03-02T18:12:19.238Z,4.5
2019-03-02T18:14:19.992Z,4.7
2019-03-02T18:16:18.605Z,4.5
2019-03-02T18:18:19.365Z,4.5
2019-03-02T18:20:19.459Z,4.5
2019-03-02T18:22:20.044Z,5.7
2019-03-02T18:24:18.819Z,4.6
2019-03-02T18:26:20.632Z,5.8
2019-03-02T18:28:18.800Z,5.3
2019-03-02T18:30:18.469Z,4.8
2019-03-02T18:32:19.103Z,5.6
2019-03-02T18:34:19.900Z,4.7
2019-03-02T18:36:18.732Z,5
2019-03-02T18:38:19.400Z,5
2019-03-02T18:40:18.612Z,5.2
2019-03-02T18:42:19.254Z,5.8
2019-03-02T18:44:21.204Z,5
2019-03-02T18:46:19.354Z,5.9
2019-03-02T18:48:19.044Z,5.1
2019-03-02T18:50:18.738Z,5.6
2019-03-02T18:52:21.166Z,5.5
2019-03-02T18:54:19.272Z,5.6
2019-03-02T18:56:18.608Z,7.6
2019-03-02T18:58:19.295Z,5.7
2019-03-02T19:00:22.027Z,7.2
2019-03-02T19:02:18.660Z,5.9
2019-03-02T19:04:19.325Z,6
2019-03-02T19:06:18.654Z,6.2
2019-03-02T19:08:19.359Z,6
2019-03-02T19:10:18.554Z,6.1
2019-03-02T19:12:19.207Z,6.4
2019-03-02T19:14:20.957Z,6
2019-03-02T19:16:18.625Z,6
2019-03-02T19:18:19.382Z,6.8
2019-03-02T19:20:19.077Z,6.2
2019-03-02T19:22:18.774Z,7.4
2019-03-02T19:24:18.477Z,6.3
2019-03-02T19:26:18.840Z,6
2019-03-02T19:28:18.519Z,6.4
2019-03-02T19:30:19.227Z,7.5
2019-03-02T19:32:18.918Z,7
2019-03-02T19:34:18.579Z,7.7
2019-03-02T19:36:18.935Z,7.1
2019-03-02T19:38:18.624Z,7.5
2019-03-02T19:40:18.767Z,6.9
2019-03-02T19:42:19.468Z,7.5
2019-03-02T19:44:19.170Z,7.9
2019-03-02T19:46:18.992Z,7.3
2019-03-02T19:48:18.683Z,8.3
2019-03-02T19:50:19.386Z,8
2019-03-02T19:52:19.067Z,7.8
2019-03-02T19:54:18.748Z,8.5
2019-03-02T19:56:19.027Z,6.9
2019-03-02T19:58:18.722Z,7.1
2019-03-02T20:00:19.424Z,8.4
2019-03-02T20:02:19.074Z,6.6
2019-03-02T20:04:18.750Z,7.5
2019-03-02T20:06:19.062Z,6.6
2019-03-02T20:08:18.718Z,7.1
2019-03-02T20:10:18.950Z,8.2
2019-03-02T20:12:18.658Z,7.9
2019-03-02T20:14:19.342Z,7.1
2019-03-02T20:16:18.679Z,8.1
2019-03-02T20:18:19.437Z,8.4
2019-03-02T20:20:19.110Z,8
2019-03-02T20:22:18.804Z,8
2019-03-02T20:24:18.460Z,8.4
2019-03-02T20:26:18.748Z,8.2
2019-03-02T20:28:19.459Z,7.5
2019-03-02T20:30:19.158Z,8.6
2019-03-02T20:32:18.870Z,8
2019-03-02T20:34:18.539Z,8.2
2019-03-02T20:36:18.866Z,7.5
2019-03-02T20:38:18.572Z,8.2
2019-03-02T20:40:18.715Z,9.4
2019-03-02T20:42:19.402Z,8.3
2019-03-02T20:44:19.119Z,9.5
2019-03-02T20:46:19.449Z,7.6
2019-03-02T20:48:19.148Z,8.4
2019-03-02T20:50:18.849Z,8.9
2019-03-02T20:52:18.525Z,9.1
2019-03-02T20:54:19.195Z,9.2
2019-03-02T20:56:18.524Z,8.3
2019-03-02T20:58:19.208Z,7.6
2019-03-02T21:00:18.863Z,9
2019-03-02T21:02:18.537Z,9.9
2019-03-02T21:04:19.217Z,7.8
2019-03-02T21:06:18.596Z,8.7
2019-03-02T21:08:19.291Z,10
2019-03-02T21:10:18.541Z,9.2
2019-03-02T21:12:19.191Z,9.1
2019-03-02T21:14:18.866Z,9
2019-03-02T21:16:18.684Z,9.5
2019-03-02T21:18:19.431Z,9.7
2019-03-02T21:20:19.092Z,9.7
2019-03-02T21:22:18.786Z,8.3
2019-03-02T21:24:18.447Z,9.5
2019-03-02T21:26:18.749Z,8
2019-03-02T21:28:19.436Z,8.7
2019-03-02T21:30:19.141Z,9.3
2019-03-02T21:32:18.834Z,9.3
2019-03-02T21:34:18.544Z,8.7
2019-03-02T21:36:18.876Z,9.9
2019-03-02T21:38:18.570Z,9.8
2019-03-02T21:40:18.657Z,10.4
2019-03-02T21:42:19.349Z,9
2019-03-02T21:44:19.034Z,8.7
2019-03-02T21:46:19.329Z,9.1
2019-03-02T21:48:19.034Z,9.2
2019-03-02T21:50:18.712Z,8.4
2019-03-02T21:52:19.394Z,9.5
2019-03-02T21:54:19.070Z,9.2
2019-03-02T21:56:19.406Z,9.6
2019-03-02T21:58:19.095Z,9.5
2019-03-02T22:00:18.801Z,7.9
2019-03-02T22:02:18.502Z,9.5
2019-03-02T22:04:19.189Z,10.1
2019-03-02T22:06:19.086Z,9.3
2019-03-02T22:08:18.741Z,8.4
2019-03-02T22:10:18.976Z,9.7
2019-03-02T22:12:18.708Z,9.2
2019-03-02T22:14:19.377Z,8.9
2019-03-02T22:16:18.717Z,9
2019-03-02T22:18:18.478Z,8.9
2019-03-02T22:20:19.132Z,9.5
2019-03-02T22:22:18.812Z,9.1
2019-03-02T22:24:18.470Z,9.7
2019-03-02T22:26:18.830Z,9.4
2019-03-02T22:28:18.524Z,9.9
2019-03-02T22:30:19.206Z,9.5
2019-03-02T22:32:18.908Z,9.1
2019-03-02T22:34:18.586Z,9.6
2019-03-02T22:36:18.963Z,9.8
2019-03-02T22:38:18.654Z,8.7
2019-03-02T22:40:18.881Z,8.2
2019-03-02T22:42:18.565Z,9
2019-03-02T22:44:19.257Z,9.8
2019-03-02T22:46:19.153Z,8.7
2019-03-02T22:48:18.809Z,10
2019-03-02T22:50:18.527Z,8.5
2019-03-02T22:52:19.208Z,8.9
2019-03-02T22:54:18.845Z,9.5
2019-03-02T22:56:19.161Z,10.4
2019-03-02T22:58:18.881Z,9.1
2019-03-02T23:00:18.554Z,9.8
2019-03-02T23:02:19.237Z,9.3
2019-03-02T23:04:18.910Z,10.6
2019-03-02T23:06:19.230Z,9.3
2019-03-02T23:08:18.923Z,10.1
2019-03-02T23:10:19.009Z,10.1
2019-03-02T23:12:18.702Z,11.9
2019-03-02T23:14:19.374Z,9.9
2019-03-02T23:16:18.716Z,11.2
2019-03-02T23:18:18.494Z,11.8
2019-03-02T23:20:19.217Z,12.5
2019-03-02T23:22:18.925Z,10.3
2019-03-02T23:24:18.618Z,11.2
2019-03-02T23:26:18.920Z,11
2019-03-02T23:28:18.583Z,10.1
2019-03-02T23:30:19.261Z,12.2
2019-03-02T23:32:18.947Z,12.5
2019-03-02T23:34:18.611Z,11.5
2019-03-02T23:36:18.969Z,9.8
2019-03-02T23:38:18.670Z,11.8
2019-03-02T23:40:18.882Z,11.5
2019-03-02T23:42:18.519Z,11.5
2019-03-02T23:44:19.206Z,12.4
2019-03-02T23:46:18.976Z,10.7
2019-03-02T23:48:18.660Z,11
2019-03-02T23:50:19.398Z,11.4
2019-03-02T23:52:19.083Z,11.1
2019-03-02T23:54:18.790Z,10.1
2019-03-02T23:56:19.091Z,10.9
2019-03-02T23:58:18.781Z,14.2
